Terminal Aerodrome Forecast
Issued by NWS Portland, OR

Home | Current Version | Previous Version | Text Only | Print | Product List | Glossary On
Versions: 1 2 3 4 5 6 7 8 9 10 11 12 13 14 15 16 17 18 19 20 21 22 23 24 25 26 27 28 29 30 31 32 33
000
FTUS46 KPQR 231425 AAA
TAFAST
TAF AMD
KAST 231425Z 2314/2412 21011KT 6SM -RADZ BR BKN006 OVC020
      TEMPO 2314/2318 3SM -RADZ
     FM231800 22011KT P6SM -RA SCT006 BKN020 OVC045
     FM232200 24012KT P6SM VCSH SCT025 BKN045 OVC060
     FM240300 22006KT P6SM BKN025 OVC045=

USA.gov is the U.S. government's official web portal to all federal, state and local government web resources and services.